sensor_id;sensor_type;location;lat;lon;timestamp;pressure;altitude;pressure_sealevel;temperature;humidity
24746;BME280;12845;52.042;6.838;2023-02-27T00:01:54;-17998.19;;;-1.07;100.00
24746;BME280;12845;52.042;6.838;2023-02-27T00:04:20;-17995.97;;;-1.16;100.00
24746;BME280;12845;52.042;6.838;2023-02-27T00:06:45;-17993.22;;;-1.26;100.00
24746;BME280;12845;52.042;6.838;2023-02-27T00:09:10;-17993.50;;;-1.25;100.00
24746;BME280;12845;52.042;6.838;2023-02-27T00:11:36;-17992.53;;;-1.28;100.00
24746;BME280;12845;52.042;6.838;2023-02-27T00:14:03;-17991.97;;;-1.30;100.00
24746;BME280;12845;52.042;6.838;2023-02-27T00:16:28;-17993.91;;;-1.23;100.00
24746;BME280;12845;52.042;6.838;2023-02-27T00:18:53;-17997.94;;;-1.08;100.00
24746;BME280;12845;52.042;6.838;2023-02-27T00:21:21;-17999.31;;;-1.03;100.00
24746;BME280;12845;52.042;6.838;2023-02-27T00:23:47;-18000.56;;;-0.99;100.00
24746;BME280;12845;52.042;6.838;2023-02-27T00:26:12;-18001.53;;;-0.95;100.00
24746;BME280;12845;52.042;6.838;2023-02-27T00:28:37;-18002.50;;;-0.92;100.00
24746;BME280;12845;52.042;6.838;2023-02-27T00:31:03;-18003.75;;;-0.87;100.00
24746;BME280;12845;52.042;6.838;2023-02-27T00:33:29;-18004.72;;;-0.83;100.00
24746;BME280;12845;52.042;6.838;2023-02-27T00:35:59;-18005.69;;;-0.80;100.00
24746;BME280;12845;52.042;6.838;2023-02-27T00:38:25;-18004.84;;;-0.83;100.00
24746;BME280;12845;52.042;6.838;2023-02-27T00:40:51;-18004.56;;;-0.84;100.00
24746;BME280;12845;52.042;6.838;2023-02-27T00:43:16;-18003.34;;;-0.88;100.00
24746;BME280;12845;52.042;6.838;2023-02-27T00:45:41;-18001.53;;;-0.95;100.00
24746;BME280;12845;52.042;6.838;2023-02-27T00:48:07;-17999.88;;;-1.01;100.00
24746;BME280;12845;52.042;6.838;2023-02-27T00:50:32;-17997.94;;;-1.08;100.00
24746;BME280;12845;52.042;6.838;2023-02-27T00:52:58;-17997.38;;;-1.10;100.00
24746;BME280;12845;52.042;6.838;2023-02-27T00:55:23;-17997.66;;;-1.09;100.00
24746;BME280;12845;52.042;6.838;2023-02-27T00:57:48;-17996.25;;;-1.15;100.00
24746;BME280;12845;52.042;6.838;2023-02-27T01:00:14;-17995.28;;;-1.18;100.00
24746;BME280;12845;52.042;6.838;2023-02-27T01:02:40;-17993.50;;;-1.25;100.00
24746;BME280;12845;52.042;6.838;2023-02-27T01:05:05;-17992.09;;;-1.30;100.00
24746;BME280;12845;52.042;6.838;2023-02-27T01:07:31;-17991.81;;;-1.31;100.00
24746;BME280;12845;52.042;6.838;2023-02-27T01:09:56;-17990.56;;;-1.36;100.00
24746;BME280;12845;52.042;6.838;2023-02-27T01:12:22;-17989.88;;;-1.38;100.00
24746;BME280;12845;52.042;6.838;2023-02-27T01:14:47;-17989.19;;;-1.41;100.00
24746;BME280;12845;52.042;6.838;2023-02-27T01:17:13;-17987.53;;;-1.47;100.00
24746;BME280;12845;52.042;6.838;2023-02-27T01:19:38;-17988.22;;;-1.44;100.00
24746;BME280;12845;52.042;6.838;2023-02-27T01:22:04;-17986.84;;;-1.49;100.00
24746;BME280;12845;52.042;6.838;2023-02-27T01:24:29;-17984.19;;;-1.59;100.00
24746;BME280;12845;52.042;6.838;2023-02-27T01:26:55;-17984.75;;;-1.57;100.00
24746;BME280;12845;52.042;6.838;2023-02-27T01:29:20;-17982.66;;;-1.65;100.00
24746;BME280;12845;52.042;6.838;2023-02-27T01:31:46;-17983.66;;;-1.61;100.00
24746;BME280;12845;52.042;6.838;2023-02-27T01:34:13;-17981.56;;;-1.69;100.00
24746;BME280;12845;52.042;6.838;2023-02-27T01:36:38;-17981.28;;;-1.70;100.00
24746;BME280;12845;52.042;6.838;2023-02-27T01:39:03;-17979.91;;;-1.75;100.00
24746;BME280;12845;52.042;6.838;2023-02-27T01:41:29;-17976.72;;;-1.87;100.00
24746;BME280;12845;52.042;6.838;2023-02-27T01:44:04;-17975.19;;;-1.92;100.00
24746;BME280;12845;52.042;6.838;2023-02-27T01:46:31;-17974.63;;;-1.94;100.00
24746;BME280;12845;52.042;6.838;2023-02-27T01:49:10;-17972.97;;;-2.00;100.00
24746;BME280;12845;52.042;6.838;2023-02-27T01:51:44;-17970.19;;;-2.11;100.00
24746;BME280;12845;52.042;6.838;2023-02-27T01:54:11;-17968.38;;;-2.17;100.00
24746;BME280;12845;52.042;6.838;2023-02-27T01:56:40;-17967.13;;;-2.22;100.00
24746;BME280;12845;52.042;6.838;2023-02-27T01:59:08;-17969.06;;;-2.15;100.00
24746;BME280;12845;52.042;6.838;2023-02-27T02:01:35;-17969.22;;;-2.14;100.00
24746;BME280;12845;52.042;6.838;2023-02-27T02:04:28;-17971.44;;;-2.06;100.00
24746;BME280;12845;52.042;6.838;2023-02-27T02:07:00;-17970.88;;;-2.08;100.00
24746;BME280;12845;52.042;6.838;2023-02-27T02:09:27;-17971.84;;;-2.05;100.00
24746;BME280;12845;52.042;6.838;2023-02-27T02:11:54;-17971.56;;;-2.06;100.00
24746;BME280;12845;52.042;6.838;2023-02-27T02:14:20;-17971.28;;;-2.07;100.00
24746;BME280;12845;52.042;6.838;2023-02-27T02:22:31;-17967.41;;;-2.21;100.00
24746;BME280;12845;52.042;6.838;2023-02-27T02:33:32;-17964.91;;;-2.30;100.00
24746;BME280;12845;52.042;6.838;2023-02-27T02:36:18;-17963.66;;;-2.35;100.00
24746;BME280;12845;52.042;6.838;2023-02-27T02:38:55;-17961.84;;;-2.41;100.00
24746;BME280;12845;52.042;6.838;2023-02-27T02:41:38;-17961.56;;;-2.42;100.00
24746;BME280;12845;52.042;6.838;2023-02-27T02:47:19;-17960.47;;;-2.46;100.00
24746;BME280;12845;52.042;6.838;2023-02-27T02:52:50;-17960.19;;;-2.47;100.00
24746;BME280;12845;52.042;6.838;2023-02-27T03:00:55;-17956.31;;;-2.62;100.00
24746;BME280;12845;52.042;6.838;2023-02-27T03:03:27;-17955.75;;;-2.64;100.00
24746;BME280;12845;52.042;6.838;2023-02-27T03:06:05;-17953.94;;;-2.70;100.00
24746;BME280;12845;52.042;6.838;2023-02-27T03:08:36;-17954.78;;;-2.67;100.00
24746;BME280;12845;52.042;6.838;2023-02-27T03:11:05;-17953.53;;;-2.72;100.00
24746;BME280;12845;52.042;6.838;2023-02-27T03:13:39;-17953.81;;;-2.71;100.00
24746;BME280;12845;52.042;6.838;2023-02-27T03:18:48;-17952.28;;;-2.77;100.00
24746;BME280;12845;52.042;6.838;2023-02-27T03:21:19;-17951.72;;;-2.79;100.00
24746;BME280;12845;52.042;6.838;2023-02-27T03:23:53;-17948.25;;;-2.91;100.00
24746;BME280;12845;52.042;6.838;2023-02-27T03:26:23;-17947.28;;;-2.95;100.00
24746;BME280;12845;52.042;6.838;2023-02-27T03:28:59;-17944.66;;;-3.05;100.00
24746;BME280;12845;52.042;6.838;2023-02-27T03:31:47;-17942.97;;;-3.11;100.00
24746;BME280;12845;52.042;6.838;2023-02-27T03:34:18;-17942.56;;;-3.12;100.00
24746;BME280;12845;52.042;6.838;2023-02-27T03:36:53;-17942.00;;;-3.14;100.00
24746;BME280;12845;52.042;6.838;2023-02-27T03:47:28;-17939.66;;;-3.23;100.00
24746;BME280;12845;52.042;6.838;2023-02-27T03:49:55;-17939.09;;;-3.25;100.00
24746;BME280;12845;52.042;6.838;2023-02-27T03:52:21;-17938.53;;;-3.27;100.00
24746;BME280;12845;52.042;6.838;2023-02-27T03:54:53;-17937.41;;;-3.31;100.00
24746;BME280;12845;52.042;6.838;2023-02-27T03:57:20;-17937.28;;;-3.32;100.00
24746;BME280;12845;52.042;6.838;2023-02-27T03:59:46;-17934.09;;;-3.44;100.00
24746;BME280;12845;52.042;6.838;2023-02-27T04:02:12;-17935.47;;;-3.38;100.00
24746;BME280;12845;52.042;6.838;2023-02-27T04:04:38;-17935.63;;;-3.38;100.00
24746;BME280;12845;52.042;6.838;2023-02-27T04:07:11;-17934.66;;;-3.42;100.00
24746;BME280;12845;52.042;6.838;2023-02-27T04:10:30;-17934.22;;;-3.43;100.00
24746;BME280;12845;52.042;6.838;2023-02-27T04:27:23;-17932.28;;;-3.50;100.00
24746;BME280;12845;52.042;6.838;2023-02-27T04:29:59;-17933.25;;;-3.47;100.00
24746;BME280;12845;52.042;6.838;2023-02-27T04:32:37;-17933.81;;;-3.45;100.00
24746;BME280;12845;52.042;6.838;2023-02-27T04:36:09;-17931.72;;;-3.52;100.00
24746;BME280;12845;52.042;6.838;2023-02-27T04:38:40;-17931.59;;;-3.53;100.00
24746;BME280;12845;52.042;6.838;2023-02-27T04:41:13;-17929.38;;;-3.61;100.00
24746;BME280;12845;52.042;6.838;2023-02-27T04:43:43;-17929.78;;;-3.59;100.00
24746;BME280;12845;52.042;6.838;2023-02-27T04:46:12;-17928.94;;;-3.63;100.00
24746;BME280;12845;52.042;6.838;2023-02-27T04:48:47;-17928.53;;;-3.64;100.00
24746;BME280;12845;52.042;6.838;2023-02-27T04:51:17;-17929.38;;;-3.61;100.00
24746;BME280;12845;52.042;6.838;2023-02-27T04:56:16;-17923.81;;;-3.81;100.00
24746;BME280;12845;52.042;6.838;2023-02-27T04:58:47;-17922.69;;;-3.86;100.00
24746;BME280;12845;52.042;6.838;2023-02-27T05:01:42;-17923.41;;;-3.83;100.00
24746;BME280;12845;52.042;6.838;2023-02-27T05:04:13;-17921.72;;;-3.89;100.00
24746;BME280;12845;52.042;6.838;2023-02-27T05:06:42;-17922.00;;;-3.88;100.00
24746;BME280;12845;52.042;6.838;2023-02-27T05:09:25;-17924.09;;;-3.80;100.00
24746;BME280;12845;52.042;6.838;2023-02-27T05:12:03;-17924.91;;;-3.77;100.00
24746;BME280;12845;52.042;6.838;2023-02-27T05:14:37;-17925.47;;;-3.75;100.00
24746;BME280;12845;52.042;6.838;2023-02-27T05:17:28;-17924.22;;;-3.80;100.00
24746;BME280;12845;52.042;6.838;2023-02-27T05:19:55;-17924.38;;;-3.79;100.00
24746;BME280;12845;52.042;6.838;2023-02-27T05:25:03;-17921.88;;;-3.89;100.00
24746;BME280;12845;52.042;6.838;2023-02-27T05:27:44;-17921.03;;;-3.92;100.00
24746;BME280;12845;52.042;6.838;2023-02-27T05:30:30;-17920.47;;;-3.94;100.00
24746;BME280;12845;52.042;6.838;2023-02-27T05:33:20;-17920.19;;;-3.95;100.00
24746;BME280;12845;52.042;6.838;2023-02-27T05:36:01;-17918.13;;;-4.02;100.00
24746;BME280;12845;52.042;6.838;2023-02-27T05:38:33;-17919.38;;;-3.98;100.00
24746;BME280;12845;52.042;6.838;2023-02-27T05:41:15;-17917.69;;;-4.04;100.00
24746;BME280;12845;52.042;6.838;2023-02-27T05:44:13;-17918.25;;;-4.02;100.00
24746;BME280;12845;52.042;6.838;2023-02-27T05:46:43;-17920.91;;;-3.92;100.00
24746;BME280;12845;52.042;6.838;2023-02-27T05:49:16;-17921.59;;;-3.90;100.00
24746;BME280;12845;52.042;6.838;2023-02-27T05:51:45;-17921.03;;;-3.92;100.00
24746;BME280;12845;52.042;6.838;2023-02-27T05:56:57;-17920.34;;;-3.94;100.00
24746;BME280;12845;52.042;6.838;2023-02-27T05:59:34;-17921.19;;;-3.91;100.00
24746;BME280;12845;52.042;6.838;2023-02-27T06:02:04;-17921.59;;;-3.90;100.00
24746;BME280;12845;52.042;6.838;2023-02-27T06:04:30;-17921.31;;;-3.91;100.00
24746;BME280;12845;52.042;6.838;2023-02-27T06:06:56;-17922.16;;;-3.88;100.00
24746;BME280;12845;52.042;6.838;2023-02-27T06:09:21;-17921.59;;;-3.90;100.00
24746;BME280;12845;52.042;6.838;2023-02-27T06:11:47;-17922.69;;;-3.86;100.00
24746;BME280;12845;52.042;6.838;2023-02-27T06:14:12;-17923.53;;;-3.82;100.00
24746;BME280;12845;52.042;6.838;2023-02-27T06:16:37;-17922.16;;;-3.88;100.00
24746;BME280;12845;52.042;6.838;2023-02-27T06:19:04;-17921.72;;;-3.89;100.00
24746;BME280;12845;52.042;6.838;2023-02-27T06:21:30;-17922.00;;;-3.88;100.00
24746;BME280;12845;52.042;6.838;2023-02-27T06:23:55;-17924.09;;;-3.80;100.00
24746;BME280;12845;52.042;6.838;2023-02-27T06:26:21;-17924.09;;;-3.80;100.00
24746;BME280;12845;52.042;6.838;2023-02-27T06:28:46;-17924.66;;;-3.78;100.00
24746;BME280;12845;52.042;6.838;2023-02-27T06:31:12;-17923.53;;;-3.82;100.00
24746;BME280;12845;52.042;6.838;2023-02-27T06:33:37;-17922.97;;;-3.84;100.00
24746;BME280;12845;52.042;6.838;2023-02-27T06:36:03;-17925.47;;;-3.75;100.00
24746;BME280;12845;52.042;6.838;2023-02-27T06:38:28;-17924.50;;;-3.79;100.00
24746;BME280;12845;52.042;6.838;2023-02-27T06:40:53;-17924.66;;;-3.78;100.00
24746;BME280;12845;52.042;6.838;2023-02-27T06:43:19;-17923.94;;;-3.81;100.00
24746;BME280;12845;52.042;6.838;2023-02-27T06:45:47;-17927.56;;;-3.68;100.00
24746;BME280;12845;52.042;6.838;2023-02-27T06:48:12;-17927.44;;;-3.68;100.00
24746;BME280;12845;52.042;6.838;2023-02-27T06:50:39;-17927.44;;;-3.68;100.00
24746;BME280;12845;52.042;6.838;2023-02-27T06:53:05;-17927.69;;;-3.67;100.00
24746;BME280;12845;52.042;6.838;2023-02-27T06:55:31;-17925.91;;;-3.74;100.00
24746;BME280;12845;52.042;6.838;2023-02-27T06:57:57;-17925.19;;;-3.76;100.00
24746;BME280;12845;52.042;6.838;2023-02-27T07:00:22;-17926.19;;;-3.73;100.00
24746;BME280;12845;52.042;6.838;2023-02-27T07:02:48;-17927.00;;;-3.70;100.00
24746;BME280;12845;52.042;6.838;2023-02-27T07:05:13;-17927.97;;;-3.66;100.00
24746;BME280;12845;52.042;6.838;2023-02-27T07:07:39;-17930.75;;;-3.56;100.00
24746;BME280;12845;52.042;6.838;2023-02-27T07:10:06;-17931.47;;;-3.53;100.00
24746;BME280;12845;52.042;6.838;2023-02-27T07:12:32;-17931.88;;;-3.52;100.00
24746;BME280;12845;52.042;6.838;2023-02-27T07:14:58;-17934.09;;;-3.44;100.00
24746;BME280;12845;52.042;6.838;2023-02-27T07:17:23;-17935.06;;;-3.40;100.00
24746;BME280;12845;52.042;6.838;2023-02-27T07:19:49;-17936.72;;;-3.34;100.00
24746;BME280;12845;52.042;6.838;2023-02-27T07:22:14;-17937.84;;;-3.30;100.00
24746;BME280;12845;52.042;6.838;2023-02-27T07:24:39;-17940.63;;;-3.20;100.00
24746;BME280;12845;52.042;6.838;2023-02-27T07:27:06;-17942.16;;;-3.14;100.00
24746;BME280;12845;52.042;6.838;2023-02-27T07:29:31;-17945.63;;;-3.01;100.00
24746;BME280;12845;52.042;6.838;2023-02-27T07:31:56;-17947.97;;;-2.92;100.00
24746;BME280;12845;52.042;6.838;2023-02-27T07:34:22;-17949.22;;;-2.88;100.00
24746;BME280;12845;52.042;6.838;2023-02-27T07:36:47;-17952.84;;;-2.75;100.00
24746;BME280;12845;52.042;6.838;2023-02-27T07:39:12;-17955.75;;;-2.64;100.00
24746;BME280;12845;52.042;6.838;2023-02-27T07:41:38;-17957.69;;;-2.57;100.00
24746;BME280;12845;52.042;6.838;2023-02-27T07:44:04;-17959.22;;;-2.51;100.00
24746;BME280;12845;52.042;6.838;2023-02-27T07:46:32;-17961.84;;;-2.41;100.00
24746;BME280;12845;52.042;6.838;2023-02-27T07:48:58;-17965.19;;;-2.29;100.00
24746;BME280;12845;52.042;6.838;2023-02-27T07:51:23;-17967.56;;;-2.20;100.00
24746;BME280;12845;52.042;6.838;2023-02-27T07:53:48;-17970.47;;;-2.10;100.00
24746;BME280;12845;52.042;6.838;2023-02-27T07:56:14;-17973.50;;;-1.98;100.00
24746;BME280;12845;52.042;6.838;2023-02-27T07:58:39;-17976.97;;;-1.86;100.00
24746;BME280;12845;52.042;6.838;2023-02-27T08:01:04;-17979.47;;;-1.76;100.00
24746;BME280;12845;52.042;6.838;2023-02-27T08:03:30;-17983.22;;;-1.63;100.00
24746;BME280;12845;52.042;6.838;2023-02-27T08:05:55;-17987.53;;;-1.47;100.00
24746;BME280;12845;52.042;6.838;2023-02-27T08:08:20;-17990.16;;;-1.37;100.00
24746;BME280;12845;52.042;6.838;2023-02-27T08:10:46;-17992.09;;;-1.30;100.00
24746;BME280;12845;52.042;6.838;2023-02-27T08:13:11;-17994.47;;;-1.21;100.00
24746;BME280;12845;52.042;6.838;2023-02-27T08:15:38;-17998.06;;;-1.08;100.00
24746;BME280;12845;52.042;6.838;2023-02-27T08:18:03;-18000.84;;;-0.98;100.00
24746;BME280;12845;52.042;6.838;2023-02-27T08:20:28;-18002.09;;;-0.93;100.00
24746;BME280;12845;52.042;6.838;2023-02-27T08:22:54;-18004.03;;;-0.86;100.00
24746;BME280;12845;52.042;6.838;2023-02-27T08:25:19;-18005.81;;;-0.79;100.00
24746;BME280;12845;52.042;6.838;2023-02-27T08:27:45;-18008.75;;;-0.69;100.00
24746;BME280;12845;52.042;6.838;2023-02-27T08:30:11;-18010.69;;;-0.61;100.00
24746;BME280;12845;52.042;6.838;2023-02-27T08:32:36;-18012.63;;;-0.54;100.00
24746;BME280;12845;52.042;6.838;2023-02-27T08:35:03;-18014.28;;;-0.48;100.00
24746;BME280;12845;52.042;6.838;2023-02-27T08:37:29;-18017.75;;;-0.35;100.00
24746;BME280;12845;52.042;6.838;2023-02-27T08:39:55;-18019.28;;;-0.30;100.00
24746;BME280;12845;52.042;6.838;2023-02-27T08:42:20;-18021.63;;;-0.21;100.00
24746;BME280;12845;52.042;6.838;2023-02-27T08:44:45;-18025.66;;;-0.06;100.00
24746;BME280;12845;52.042;6.838;2023-02-27T08:47:11;-18028.84;;;0.06;100.00
24746;BME280;12845;52.042;6.838;2023-02-27T08:49:36;-18029.25;;;0.07;100.00
24746;BME280;12845;52.042;6.838;2023-02-27T08:52:01;-18031.34;;;0.15;100.00
24746;BME280;12845;52.042;6.838;2023-02-27T08:54:28;-18035.34;;;0.30;100.00
24746;BME280;12845;52.042;6.838;2023-02-27T08:56:54;-18040.47;;;0.49;100.00
24746;BME280;12845;52.042;6.838;2023-02-27T08:59:19;-18042.41;;;0.56;100.00
24746;BME280;12845;52.042;6.838;2023-02-27T09:01:44;-18046.00;;;0.69;100.00
24746;BME280;12845;52.042;6.838;2023-02-27T09:04:10;-18050.56;;;0.86;100.00
24746;BME280;12845;52.042;6.838;2023-02-27T09:06:36;-18052.38;;;0.93;100.00
24746;BME280;12845;52.042;6.838;2023-02-27T09:09:02;-18057.38;;;1.11;100.00
24746;BME280;12845;52.042;6.838;2023-02-27T09:11:27;-18060.97;;;1.24;100.00
24746;BME280;12845;52.042;6.838;2023-02-27T09:13:53;-18063.47;;;1.33;100.00
24746;BME280;12845;52.042;6.838;2023-02-27T09:16:20;-18067.19;;;1.47;100.00
24746;BME280;12845;52.042;6.838;2023-02-27T09:18:47;-18068.84;;;1.53;100.00
24746;BME280;12845;52.042;6.838;2023-02-27T09:21:13;-18074.13;;;1.73;100.00
24746;BME280;12845;52.042;6.838;2023-02-27T09:23:38;-18077.56;;;1.86;100.00
24746;BME280;12845;52.042;6.838;2023-02-27T09:26:04;-18079.78;;;1.94;100.00
24746;BME280;12845;52.042;6.838;2023-02-27T09:28:31;-18080.19;;;1.95;100.00
24746;BME280;12845;52.042;6.838;2023-02-27T09:31:03;-18081.31;;;1.99;100.00
24746;BME280;12845;52.042;6.838;2023-02-27T09:33:30;-18080.88;;;1.98;100.00
24746;BME280;12845;52.042;6.838;2023-02-27T09:35:56;-18081.72;;;2.01;100.00
24746;BME280;12845;52.042;6.838;2023-02-27T09:38:22;-18082.13;;;2.02;100.00
24746;BME280;12845;52.042;6.838;2023-02-27T09:40:49;-18082.84;;;2.05;100.00
24746;BME280;12845;52.042;6.838;2023-02-27T09:43:18;-18086.00;;;2.17;100.00
24746;BME280;12845;52.042;6.838;2023-02-27T09:45:52;-18086.84;;;2.20;100.00
24746;BME280;12845;52.042;6.838;2023-02-27T09:50:54;-18086.97;;;2.20;100.00
24746;BME280;12845;52.042;6.838;2023-02-27T09:55:51;-18092.38;;;2.40;100.00
24746;BME280;12845;52.042;6.838;2023-02-27T09:58:37;-18094.16;;;2.47;100.00
24746;BME280;12845;52.042;6.838;2023-02-27T10:01:13;-18093.47;;;2.44;100.00
24746;BME280;12845;52.042;6.838;2023-02-27T10:14:58;-18107.72;;;2.97;100.00
24746;BME280;12845;52.042;6.838;2023-02-27T10:17:48;-18106.19;;;2.91;100.00
24746;BME280;12845;52.042;6.838;2023-02-27T10:20:27;-18104.00;;;2.83;100.00
24746;BME280;12845;52.042;6.838;2023-02-27T10:22:54;-18103.16;;;2.80;100.00
24746;BME280;12845;52.042;6.838;2023-02-27T10:25:22;-18107.72;;;2.97;100.00
24746;BME280;12845;52.042;6.838;2023-02-27T10:27:49;-18109.66;;;3.04;100.00
24746;BME280;12845;52.042;6.838;2023-02-27T10:30:27;-18113.13;;;3.17;100.00
24746;BME280;12845;52.042;6.838;2023-02-27T10:35:37;-18117.53;;;3.33;100.00
24746;BME280;12845;52.042;6.838;2023-02-27T10:38:16;-18117.81;;;3.34;100.00
24746;BME280;12845;52.042;6.838;2023-02-27T10:40:44;-18116.84;;;3.31;100.00
24746;BME280;12845;52.042;6.838;2023-02-27T10:43:14;-18118.09;;;3.35;100.00
24746;BME280;12845;52.042;6.838;2023-02-27T10:45:40;-18122.22;;;3.51;100.00
24746;BME280;12845;52.042;6.838;2023-02-27T10:48:08;-18123.63;;;3.56;100.00
24746;BME280;12845;52.042;6.838;2023-02-27T10:50:37;-18127.91;;;3.72;100.00
24746;BME280;12845;52.042;6.838;2023-02-27T10:53:15;-18128.88;;;3.75;100.00
24746;BME280;12845;52.042;6.838;2023-02-27T10:55:43;-18130.94;;;3.83;100.00
24746;BME280;12845;52.042;6.838;2023-02-27T10:58:17;-18133.44;;;3.92;100.00
24746;BME280;12845;52.042;6.838;2023-02-27T11:00:56;-18136.47;;;4.03;100.00
24746;BME280;12845;52.042;6.838;2023-02-27T11:03:31;-18141.03;;;4.20;100.00
24746;BME280;12845;52.042;6.838;2023-02-27T11:06:00;-18141.31;;;4.21;100.00
24746;BME280;12845;52.042;6.838;2023-02-27T11:08:29;-18143.78;;;4.30;100.00
24746;BME280;12845;52.042;6.838;2023-02-27T11:13:25;-18151.78;;;4.60;100.00
24746;BME280;12845;52.042;6.838;2023-02-27T11:16:11;-18154.28;;;4.69;100.00
24746;BME280;12845;52.042;6.838;2023-02-27T11:18:39;-18158.97;;;4.87;100.00
24746;BME280;12845;52.042;6.838;2023-02-27T11:21:13;-18161.19;;;4.95;100.00
24746;BME280;12845;52.042;6.838;2023-02-27T11:24:03;-18164.78;;;5.08;100.00
24746;BME280;12845;52.042;6.838;2023-02-27T11:26:39;-18159.38;;;4.88;100.00
24746;BME280;12845;52.042;6.838;2023-02-27T11:31:36;-18166.44;;;5.14;100.00
24746;BME280;12845;52.042;6.838;2023-02-27T11:34:04;-18166.44;;;5.14;100.00
24746;BME280;12845;52.042;6.838;2023-02-27T11:37:03;-18166.97;;;5.16;100.00
24746;BME280;12845;52.042;6.838;2023-02-27T11:39:33;-18172.38;;;5.36;100.00
24746;BME280;12845;52.042;6.838;2023-02-27T11:42:13;-18173.34;;;5.40;100.00
24746;BME280;12845;52.042;6.838;2023-02-27T11:44:49;-18178.16;;;5.58;100.00
24746;BME280;12845;52.042;6.838;2023-02-27T11:47:38;-18184.91;;;5.83;100.00
24746;BME280;12845;52.042;6.838;2023-02-27T11:52:52;-18192.09;;;6.09;100.00
24746;BME280;12845;52.042;6.838;2023-02-27T11:55:20;-18195.81;;;6.23;100.00
24746;BME280;12845;52.042;6.838;2023-02-27T11:57:51;-18198.84;;;6.35;100.00
24746;BME280;12845;52.042;6.838;2023-02-27T12:00:30;-18194.44;;;6.18;100.00
24746;BME280;12845;52.042;6.838;2023-02-27T12:02:59;-18188.50;;;5.96;100.00
24746;BME280;12845;52.042;6.838;2023-02-27T12:05:53;-18187.41;;;5.92;100.00
24746;BME280;12845;52.042;6.838;2023-02-27T12:08:33;-18185.34;;;5.84;100.00
24746;BME280;12845;52.042;6.838;2023-02-27T12:11:04;-18183.69;;;5.78;100.00
24746;BME280;12845;52.042;6.838;2023-02-27T12:13:34;-18183.00;;;5.76;100.00
24746;BME280;12845;52.042;6.838;2023-02-27T12:16:09;-18188.09;;;5.95;100.00
24746;BME280;12845;52.042;6.838;2023-02-27T12:18:43;-18186.31;;;5.88;100.00
24746;BME280;12845;52.042;6.838;2023-02-27T12:21:18;-18183.25;;;5.77;100.00
24746;BME280;12845;52.042;6.838;2023-02-27T12:23:49;-18177.63;;;5.56;100.00
24746;BME280;12845;52.042;6.838;2023-02-27T12:26:23;-18173.34;;;5.40;100.00
24746;BME280;12845;52.042;6.838;2023-02-27T12:29:02;-18170.84;;;5.31;100.00
24746;BME280;12845;52.042;6.838;2023-02-27T12:37:13;-18171.25;;;5.32;100.00
24746;BME280;12845;52.042;6.838;2023-02-27T12:39:43;-18170.44;;;5.29;100.00
24746;BME280;12845;52.042;6.838;2023-02-27T12:42:13;-18170.03;;;5.28;100.00
24746;BME280;12845;52.042;6.838;2023-02-27T12:47:43;-18167.53;;;5.18;100.00
24746;BME280;12845;52.042;6.838;2023-02-27T12:50:20;-18168.91;;;5.24;100.00
24746;BME280;12845;52.042;6.838;2023-02-27T12:52:58;-18170.44;;;5.29;100.00
24746;BME280;12845;52.042;6.838;2023-02-27T12:56:05;-18168.38;;;5.22;100.00
24746;BME280;12845;52.042;6.838;2023-02-27T13:01:43;-18165.47;;;5.11;100.00
24746;BME280;12845;52.042;6.838;2023-02-27T13:04:24;-18165.06;;;5.09;100.00
24746;BME280;12845;52.042;6.838;2023-02-27T13:07:00;-18166.03;;;5.13;100.00
24746;BME280;12845;52.042;6.838;2023-02-27T13:09:31;-18169.75;;;5.27;100.00
24746;BME280;12845;52.042;6.838;2023-02-27T13:14:55;-18170.84;;;5.31;100.00
24746;BME280;12845;52.042;6.838;2023-02-27T13:17:46;-18165.88;;;5.12;100.00
24746;BME280;12845;52.042;6.838;2023-02-27T13:23:14;-18162.72;;;5.01;100.00
24746;BME280;12845;52.042;6.838;2023-02-27T13:25:46;-18162.44;;;5.00;100.00
24746;BME280;12845;52.042;6.838;2023-02-27T13:28:18;-18163.81;;;5.05;100.00
24746;BME280;12845;52.042;6.838;2023-02-27T13:30:56;-18162.28;;;4.99;100.00
24746;BME280;12845;52.042;6.838;2023-02-27T13:33:34;-18161.47;;;4.96;100.00
24746;BME280;12845;52.042;6.838;2023-02-27T13:38:54;-18157.72;;;4.82;100.00
24746;BME280;12845;52.042;6.838;2023-02-27T13:46:27;-18173.34;;;5.40;100.00
24746;BME280;12845;52.042;6.838;2023-02-27T13:56:45;-18205.75;;;6.60;100.00
24746;BME280;12845;52.042;6.838;2023-02-27T13:59:21;-18216.38;;;6.99;100.00
24746;BME280;12845;52.042;6.838;2023-02-27T14:01:59;-18225.03;;;7.32;100.00
24746;BME280;12845;52.042;6.838;2023-02-27T14:04:31;-18228.75;;;7.45;95.14
24746;BME280;12845;52.042;6.838;2023-02-27T14:07:09;-18211.69;;;6.82;80.69
24746;BME280;12845;52.042;6.838;2023-02-27T14:09:38;-18199.97;;;6.39;86.14
24746;BME280;12845;52.042;6.838;2023-02-27T14:12:20;-18192.94;;;6.13;91.21
24746;BME280;12845;52.042;6.838;2023-02-27T14:14:51;-18190.44;;;6.03;99.65
24746;BME280;12845;52.042;6.838;2023-02-27T14:22:41;-18213.88;;;6.90;100.00
24746;BME280;12845;52.042;6.838;2023-02-27T14:25:12;-18221.47;;;7.18;100.00
24746;BME280;12845;52.042;6.838;2023-02-27T14:30:24;-18227.78;;;7.42;94.63
24746;BME280;12845;52.042;6.838;2023-02-27T14:32:55;-18229.59;;;7.49;94.68
24746;BME280;12845;52.042;6.838;2023-02-27T14:35:22;-18227.53;;;7.41;100.00
24746;BME280;12845;52.042;6.838;2023-02-27T14:37:49;-18225.59;;;7.34;100.00
24746;BME280;12845;52.042;6.838;2023-02-27T14:40:26;-18232.75;;;7.60;100.00
24746;BME280;12845;52.042;6.838;2023-02-27T14:45:22;-18225.19;;;7.32;90.07
24746;BME280;12845;52.042;6.838;2023-02-27T14:47:49;-18214.28;;;6.92;95.56
24746;BME280;12845;52.042;6.838;2023-02-27T14:50:25;-18210.56;;;6.78;100.00
24746;BME280;12845;52.042;6.838;2023-02-27T14:52:51;-18201.19;;;6.43;100.00
24746;BME280;12845;52.042;6.838;2023-02-27T14:55:23;-18199.41;;;6.37;100.00
24746;BME280;12845;52.042;6.838;2023-02-27T14:58:14;-18202.16;;;6.47;100.00
24746;BME280;12845;52.042;6.838;2023-02-27T15:00:46;-18206.72;;;6.64;100.00
24746;BME280;12845;52.042;6.838;2023-02-27T15:03:28;-18205.88;;;6.61;94.65
24746;BME280;12845;52.042;6.838;2023-02-27T15:05:58;-18209.19;;;6.73;95.08
24746;BME280;12845;52.042;6.838;2023-02-27T15:08:36;-18213.19;;;6.88;100.00
24746;BME280;12845;52.042;6.838;2023-02-27T15:11:02;-18216.91;;;7.01;100.00
24746;BME280;12845;52.042;6.838;2023-02-27T15:13:34;-18223.41;;;7.26;96.18